Aérodrome :
LOGIN :

S'inscrire | Disclaimer

   EN    FR    IT 

 










Légende :    VFR   VFR Marginal   IFR   IFR Intensif   IFR Très Intensif
Visi : 
Plafond : 
>= 8 km
>= 3000ft
5 à 8 km
1000 à 3000 ft
1500m à 5 km
500 à 1000 ft
800 à 1500m
200 à 500 ft
< 800m
< 200 ft
Symboles :   Orages  Brouillard  Fortes neiges  Fortes précipitations  Vent > 20 kt
SIGMETs :   Divers  Orages  Givrage  Turbulence  Onde Orograph.  Cendres Volcan.







- Altitude de l'aérodrome : 885 ft
- Code IATA : BAS
- Voir les cartes d'approche


LFSB - Bale-Mulhouse

DERNIER METAR :
  • 240930Z 36010KT 310V050 9999 FEW043 BKN200 20/08 Q1024 NOSIG

METARs EXPIRÉS :
  • 240900Z 34011KT 9999 FEW040 BKN240 20/09 Q1024 NOSIG
  • 240830Z 35010KT 320V020 9999 FEW033 BKN240 19/09 Q1025 NOSIG
  • 240800Z 35009KT 320V020 9999 FEW033 BKN240 19/10 Q1025 NOSIG
  • 240730Z 34008KT 310V010 9999 FEW030 BKN240 19/11 Q1024 NOSIG
  • 240700Z 33006KT 300V010 9999 FEW050 BKN240 17/11 Q1024 NOSIG

TAF TAF LFSB
Valide du 24 à 06h jusqu'au 25 à 06h UTC


240500Z 2406/2506 34007KT CAVOK
TEMPO 2422/2506 VRB03KT
Météo : +33 3 89 90 31 11
Pas de NOTAMs connus pour ce terrain.



MET'MAP, la Météo Aéronautique d'un coup d'oeil ! - Copyright ORBIFLY Décembre 2007 - Disclaimer

ORBIFLY MET'MAP TEAM :

Programmation & Développement : Alexandra Zaïnal
Conception & Développement : Baudouin d'Aumeries
Co-Programmation & Développement : Marc-Olivier Méhu
Soutien technique & logistique : Manuel Goepfert

Contact : metmap@orbifly.com




SOURCES & CREDITS :

   NOAA